createdAt,value
2018-05-24T00:01:11.682Z,3.13
2018-05-24T00:03:40.907Z,2.80
2018-05-24T00:06:11.131Z,3.03
2018-05-24T00:08:41.085Z,2.27
2018-05-24T00:11:12.065Z,2.57
2018-05-24T00:13:41.606Z,2.83
2018-05-24T00:16:14.365Z,2.97
2018-05-24T00:18:43.470Z,2.40
2018-05-24T00:21:13.025Z,3.20
2018-05-24T00:23:42.739Z,2.80
2018-05-24T00:26:12.825Z,3.07
2018-05-24T00:28:43.139Z,2.50
2018-05-24T00:31:12.843Z,2.90
2018-05-24T00:33:43.339Z,2.63
2018-05-24T00:36:20.043Z,2.20
2018-05-24T00:38:49.106Z,2.80
2018-05-24T00:41:19.510Z,3.10
2018-05-24T00:43:49.767Z,2.77
2018-05-24T00:46:20.763Z,2.90
2018-05-24T00:48:51.193Z,2.67
2018-05-24T00:51:21.582Z,2.80
2018-05-24T00:53:50.886Z,2.70
2018-05-24T00:56:22.690Z,3.03
2018-05-24T00:58:51.814Z,2.70
2018-05-24T01:01:22.202Z,3.00
2018-05-24T01:03:52.250Z,2.73
2018-05-24T01:06:23.851Z,2.80
2018-05-24T01:08:53.806Z,3.10
2018-05-24T01:11:24.356Z,2.90
2018-05-24T01:13:54.205Z,2.20
2018-05-24T01:16:30.155Z,2.90
2018-05-24T01:19:00.690Z,3.03
2018-05-24T01:21:30.862Z,2.57
2018-05-24T01:24:01.279Z,2.90
2018-05-24T01:26:31.647Z,2.57
2018-05-24T01:29:01.043Z,2.37
2018-05-24T01:31:31.402Z,2.93
2018-05-24T01:34:01.079Z,2.60
2018-05-24T01:36:54.086Z,2.60
2018-05-24T01:39:24.653Z,2.70
2018-05-24T01:41:53.074Z,2.37
2018-05-24T01:44:21.412Z,2.93
2018-05-24T01:46:57.170Z,2.43
2018-05-24T01:49:26.138Z,2.47
2018-05-24T01:51:56.657Z,2.70
2018-05-24T01:54:25.546Z,2.77
2018-05-24T01:56:58.559Z,2.60
2018-05-24T01:59:28.931Z,2.90
2018-05-24T02:01:58.078Z,2.73
2018-05-24T02:04:27.591Z,2.50
2018-05-24T02:07:00.439Z,2.47
2018-05-24T02:09:30.726Z,2.67
2018-05-24T02:12:00.420Z,2.33
2018-05-24T02:14:29.731Z,2.80
2018-05-24T02:17:02.415Z,2.80
2018-05-24T02:19:32.842Z,3.00
2018-05-24T02:22:01.166Z,2.80
2018-05-24T02:24:30.525Z,3.07
2018-05-24T02:27:02.601Z,2.77
2018-05-24T02:29:31.839Z,2.80
2018-05-24T02:32:01.549Z,3.03
2018-05-24T02:34:31.046Z,2.80
2018-05-24T02:37:01.320Z,2.93
2018-05-24T02:39:32.075Z,2.83
2018-05-24T02:42:02.471Z,3.00
2018-05-24T02:44:31.269Z,3.13
2018-05-24T02:47:03.078Z,2.60
2018-05-24T02:49:33.986Z,3.10
2018-05-24T02:52:04.864Z,2.70
2018-05-24T02:54:33.580Z,2.63
2018-05-24T02:57:04.190Z,3.03
2018-05-24T02:59:33.343Z,2.70
2018-05-24T03:02:02.561Z,3.20
2018-05-24T03:04:32.214Z,2.93
2018-05-24T03:07:00.583Z,2.60
2018-05-24T03:09:30.046Z,3.30
2018-05-24T03:11:58.441Z,3.00
2018-05-24T03:14:29.179Z,3.07
2018-05-24T03:16:58.186Z,2.80
2018-05-24T03:19:27.127Z,2.80
2018-05-24T03:21:56.649Z,3.33
2018-05-24T03:24:25.626Z,3.33
2018-05-24T03:26:55.816Z,2.93
2018-05-24T03:29:37.413Z,2.90
2018-05-24T03:32:07.112Z,3.00
2018-05-24T03:34:37.619Z,3.20
2018-05-24T03:37:06.922Z,3.07
2018-05-24T03:39:35.454Z,2.60
2018-05-24T03:42:05.183Z,2.73
2018-05-24T03:44:34.371Z,2.63
2018-05-24T03:47:03.365Z,2.60
2018-05-24T03:49:33.193Z,3.10
2018-05-24T03:52:02.098Z,3.23
2018-05-24T03:54:32.816Z,2.90
2018-05-24T03:57:02.038Z,2.90
2018-05-24T03:59:53.422Z,2.93
2018-05-24T04:02:33.999Z,2.77
2018-05-24T04:05:02.885Z,2.87
2018-05-24T04:07:32.179Z,3.20
2018-05-24T04:10:02.675Z,2.80
2018-05-24T04:12:31.281Z,3.10
2018-05-24T04:15:01.194Z,2.97
2018-05-24T04:17:30.738Z,3.00
2018-05-24T04:20:07.791Z,3.20
2018-05-24T04:22:37.595Z,3.33
2018-05-24T04:25:07.362Z,2.70
2018-05-24T04:27:36.775Z,3.10
2018-05-24T04:30:12.543Z,2.90
2018-05-24T04:32:41.681Z,3.10
2018-05-24T04:35:12.458Z,2.80
2018-05-24T04:37:43.300Z,3.00
2018-05-24T04:40:14.225Z,3.23
2018-05-24T04:42:42.835Z,2.90
2018-05-24T04:45:13.358Z,3.20
2018-05-24T04:47:43.612Z,3.37
2018-05-24T04:50:12.142Z,3.23
2018-05-24T04:52:41.040Z,2.90
2018-05-24T04:55:10.317Z,3.47
2018-05-24T04:57:41.291Z,3.23
2018-05-24T05:00:10.247Z,3.00
2018-05-24T05:02:39.773Z,3.03
2018-05-24T05:05:09.465Z,3.50
2018-05-24T05:07:39.359Z,3.63
2018-05-24T05:10:08.994Z,3.13
2018-05-24T05:12:37.379Z,3.50
2018-05-24T05:15:07.316Z,3.00
2018-05-24T05:17:37.780Z,3.07
2018-05-24T05:20:07.226Z,2.70
2018-05-24T05:22:36.638Z,2.80
2018-05-24T05:25:05.862Z,3.40
2018-05-24T05:27:35.290Z,2.93
2018-05-24T05:30:04.267Z,3.53
2018-05-24T05:32:35.091Z,3.37
2018-05-24T05:35:05.429Z,3.47
2018-05-24T05:37:34.718Z,3.30
2018-05-24T05:40:03.955Z,3.50
2018-05-24T05:42:33.901Z,3.80
2018-05-24T05:45:03.974Z,3.30
2018-05-24T05:47:32.987Z,3.50
2018-05-24T05:50:03.986Z,3.27
2018-05-24T05:52:33.511Z,3.33
2018-05-24T05:55:03.559Z,3.57
2018-05-24T05:57:32.774Z,3.93
2018-05-24T06:00:02.901Z,3.70
2018-05-24T06:02:32.242Z,3.63
2018-05-24T06:05:01.832Z,3.73
2018-05-24T06:07:31.450Z,4.30
2018-05-24T06:10:01.383Z,3.50
2018-05-24T06:12:45.515Z,2.90
2018-05-24T06:15:14.098Z,4.20
2018-05-24T06:17:44.877Z,4.53
2018-05-24T06:20:16.105Z,5.03
2018-05-24T06:22:55.530Z,4.80
2018-05-24T06:25:25.218Z,4.30
2018-05-24T06:27:55.237Z,3.63
2018-05-24T06:30:26.231Z,4.60
2018-05-24T06:32:55.782Z,4.30
2018-05-24T06:35:25.021Z,4.60
2018-05-24T06:37:54.703Z,4.03
2018-05-24T06:40:24.841Z,4.97
2018-05-24T06:42:54.514Z,3.97
2018-05-24T06:45:23.615Z,4.00
2018-05-24T06:47:53.234Z,4.20
2018-05-24T06:50:23.596Z,4.10
2018-05-24T06:52:52.047Z,4.20
2018-05-24T06:55:21.729Z,6.13
2018-05-24T06:57:51.863Z,4.63
2018-05-24T07:00:21.709Z,4.77
2018-05-24T07:03:02.197Z,4.17
2018-05-24T07:05:30.636Z,4.57
2018-05-24T07:07:59.975Z,5.87
2018-05-24T07:10:31.307Z,4.30
2018-05-24T07:13:02.898Z,4.30
2018-05-24T07:15:33.491Z,4.17
2018-05-24T07:18:03.643Z,4.20
2018-05-24T07:20:34.467Z,4.10
2018-05-24T07:23:04.030Z,3.97
2018-05-24T07:25:33.547Z,4.07
2018-05-24T07:28:03.826Z,4.07
2018-05-24T07:30:34.293Z,3.90
2018-05-24T07:33:04.099Z,3.80
2018-05-24T07:35:33.551Z,3.73
2018-05-24T07:38:03.780Z,4.13
2018-05-24T07:40:33.251Z,4.07
2018-05-24T07:43:12.990Z,4.67
2018-05-24T07:45:42.242Z,4.37
2018-05-24T07:48:11.466Z,3.80
2018-05-24T07:50:41.347Z,4.27
2018-05-24T07:53:10.415Z,4.30
2018-05-24T07:55:39.638Z,3.80
2018-05-24T07:58:09.769Z,4.27
2018-05-24T08:00:38.942Z,4.23
2018-05-24T08:03:08.598Z,4.27
2018-05-24T08:05:38.410Z,4.70
2018-05-24T08:08:07.542Z,4.73
2018-05-24T08:10:36.463Z,4.73
2018-05-24T08:13:04.810Z,5.13
2018-05-24T08:15:33.401Z,4.50
2018-05-24T08:18:01.846Z,4.40
2018-05-24T08:20:31.997Z,4.40
2018-05-24T08:25:45.114Z,4.87
2018-05-24T08:28:14.534Z,5.07
2018-05-24T08:30:44.963Z,4.83
2018-05-24T08:33:15.707Z,4.77
2018-05-24T08:35:45.799Z,4.70
2018-05-24T08:38:15.107Z,4.60
2018-05-24T08:40:44.348Z,4.70
2018-05-24T08:43:13.722Z,4.30
2018-05-24T08:45:42.568Z,4.20
2018-05-24T08:48:11.371Z,4.80
2018-05-24T08:50:40.750Z,4.20
2018-05-24T08:53:09.818Z,4.27
2018-05-24T08:55:39.618Z,4.50
2018-05-24T08:58:08.967Z,4.10
2018-05-24T09:00:38.366Z,4.50
2018-05-24T09:03:10.395Z,4.60
2018-05-24T09:05:45.675Z,4.17
2018-05-24T09:08:15.736Z,4.47
2018-05-24T09:10:45.910Z,4.30
2018-05-24T09:13:15.359Z,3.80
2018-05-24T09:15:45.589Z,4.20
2018-05-24T09:18:14.603Z,4.30
2018-05-24T09:20:44.182Z,4.13
2018-05-24T09:23:12.941Z,3.70
2018-05-24T09:28:35.183Z,3.60
2018-05-24T09:31:05.530Z,3.70
2018-05-24T09:33:35.791Z,3.53
2018-05-24T09:36:11.460Z,3.60
2018-05-24T09:38:42.131Z,3.83
2018-05-24T09:41:13.220Z,3.47
2018-05-24T09:43:43.123Z,4.27
2018-05-24T09:46:13.731Z,3.53
2018-05-24T09:48:42.867Z,4.20
2018-05-24T09:51:11.899Z,6.87
2018-05-24T09:53:41.424Z,5.97
2018-05-24T09:56:11.080Z,7.77
2018-05-24T09:58:41.334Z,6.03
2018-05-24T10:01:10.798Z,6.57
2018-05-24T10:03:41.593Z,5.67
2018-05-24T10:06:10.806Z,5.23
2018-05-24T10:08:40.936Z,6.33
2018-05-24T10:11:10.578Z,6.53
2018-05-24T10:13:39.766Z,5.70
2018-05-24T10:16:10.543Z,6.20
2018-05-24T10:18:39.634Z,6.33
2018-05-24T10:21:09.486Z,5.70
2018-05-24T10:23:39.762Z,5.77
2018-05-24T10:26:20.514Z,6.37
2018-05-24T10:28:49.974Z,6.80
2018-05-24T10:31:20.415Z,6.00
2018-05-24T10:33:50.186Z,6.87
2018-05-24T10:36:18.562Z,6.47
2018-05-24T10:38:47.478Z,5.63
2018-05-24T10:41:15.937Z,5.10
2018-05-24T10:43:46.293Z,5.67
2018-05-24T10:50:46.674Z,5.77
2018-05-24T10:53:15.633Z,4.80
2018-05-24T10:55:46.689Z,6.27
2018-05-24T10:58:16.054Z,5.00
2018-05-24T11:00:45.546Z,4.93
2018-05-24T11:03:15.500Z,5.10
2018-05-24T11:05:44.226Z,5.63
2018-05-24T11:08:14.778Z,5.80
2018-05-24T11:10:44.839Z,7.33
2018-05-24T11:13:14.828Z,6.53
2018-05-24T11:15:44.473Z,7.80
2018-05-24T11:18:14.915Z,5.87
2018-05-24T11:20:43.447Z,6.20
2018-05-24T11:23:12.327Z,7.20
2018-05-24T11:25:43.483Z,7.57
2018-05-24T11:28:12.772Z,8.13
2018-05-24T11:33:22.905Z,7.87
2018-05-24T11:35:52.762Z,8.07
2018-05-24T11:38:22.993Z,6.20
2018-05-24T11:40:51.606Z,4.83
2018-05-24T11:43:27.108Z,9.03
2018-05-24T11:45:56.273Z,6.17
2018-05-24T11:48:25.569Z,7.43
2018-05-24T11:50:56.313Z,6.73
2018-05-24T11:53:26.266Z,8.17
2018-05-24T11:55:55.678Z,6.77
2018-05-24T11:58:26.634Z,4.90
2018-05-24T12:01:03.054Z,5.40
2018-05-24T12:03:32.391Z,7.53
2018-05-24T12:06:01.590Z,7.10
2018-05-24T12:08:30.178Z,6.33
2018-05-24T12:11:08.006Z,6.10
2018-05-24T12:13:38.202Z,5.40
2018-05-24T12:16:07.454Z,7.90
2018-05-24T12:18:37.760Z,8.37
2018-05-24T12:21:16.883Z,7.43
2018-05-24T12:23:46.347Z,7.37
2018-05-24T12:26:16.059Z,7.20
2018-05-24T12:28:45.706Z,8.10
2018-05-24T12:31:22.918Z,8.60
2018-05-24T12:33:53.586Z,7.37
2018-05-24T12:36:23.049Z,8.17
2018-05-24T12:38:52.311Z,7.43
2018-05-24T12:41:21.791Z,7.10
2018-05-24T12:43:51.290Z,5.33
2018-05-24T12:46:20.666Z,5.03
2018-05-24T12:48:51.193Z,5.47
2018-05-24T12:51:23.773Z,6.57
2018-05-24T12:53:52.557Z,6.73
2018-05-24T12:56:20.934Z,5.70
2018-05-24T12:58:52.769Z,5.20
2018-05-24T13:01:22.102Z,5.30
2018-05-24T13:03:52.299Z,5.63
2018-05-24T13:06:21.959Z,6.73
2018-05-24T13:08:52.122Z,6.60
2018-05-24T13:11:21.582Z,8.23
2018-05-24T13:13:51.503Z,7.10
2018-05-24T13:16:20.873Z,7.57
2018-05-24T13:18:49.197Z,8.70
2018-05-24T13:21:18.415Z,8.70
2018-05-24T13:23:49.474Z,8.83
2018-05-24T13:26:19.075Z,7.53
2018-05-24T13:28:48.643Z,9.63
2018-05-24T13:31:18.954Z,7.60
2018-05-24T13:33:47.975Z,8.10
2018-05-24T13:36:18.567Z,6.90
2018-05-24T13:38:48.698Z,7.67
2018-05-24T13:41:18.031Z,6.20
2018-05-24T13:43:48.283Z,7.10
2018-05-24T13:46:17.398Z,6.53
2018-05-24T13:48:47.276Z,8.03
2018-05-24T13:51:16.599Z,7.33
2018-05-24T13:53:45.739Z,6.40
2018-05-24T13:56:16.934Z,5.97
2018-05-24T13:58:47.390Z,6.03
2018-05-24T14:01:27.465Z,6.57
2018-05-24T14:03:57.233Z,6.40
2018-05-24T14:06:27.150Z,4.70
2018-05-24T14:08:58.417Z,4.20
2018-05-24T14:11:31.293Z,4.03
2018-05-24T14:14:01.525Z,3.37
2018-05-24T14:16:30.573Z,3.57
2018-05-24T14:19:00.486Z,3.47
2018-05-24T14:21:32.357Z,3.33
2018-05-24T14:24:01.348Z,2.97
2018-05-24T14:26:31.265Z,3.50
2018-05-24T14:29:01.937Z,3.77
2018-05-24T14:31:31.929Z,3.87
2018-05-24T14:34:01.990Z,3.13
2018-05-24T14:36:31.203Z,3.47
2018-05-24T14:39:00.990Z,3.30
2018-05-24T14:41:38.710Z,3.90
2018-05-24T14:44:07.385Z,4.20
2018-05-24T14:46:36.316Z,4.03
2018-05-24T14:49:04.959Z,4.30
2018-05-24T14:51:33.917Z,3.80
2018-05-24T14:54:04.030Z,3.63
2018-05-24T14:56:34.194Z,4.17
2018-05-24T14:59:04.651Z,4.30
2018-05-24T15:01:32.939Z,4.80
2018-05-24T15:04:02.135Z,4.23
2018-05-24T15:06:31.346Z,4.97
2018-05-24T15:09:01.423Z,4.57
2018-05-24T15:11:30.230Z,5.47
2018-05-24T15:13:59.481Z,5.33
2018-05-24T15:16:49.710Z,4.80
2018-05-24T15:19:19.838Z,5.83
2018-05-24T15:21:49.279Z,5.37
2018-05-24T15:24:17.906Z,4.97
2018-05-24T15:29:41.551Z,4.37
2018-05-24T15:32:10.455Z,4.47
2018-05-24T15:34:39.942Z,4.57
2018-05-24T15:37:08.645Z,4.07
2018-05-24T15:39:39.740Z,4.50
2018-05-24T15:42:08.944Z,5.60
2018-05-24T15:44:38.269Z,5.17
2018-05-24T15:47:08.436Z,4.70
2018-05-24T15:49:36.978Z,4.10
2018-05-24T15:52:06.218Z,4.57
2018-05-24T15:54:36.340Z,5.10
2018-05-24T15:57:06.647Z,5.97
2018-05-24T15:59:36.282Z,5.80
2018-05-24T16:02:06.367Z,4.87
2018-05-24T16:04:36.498Z,5.63
2018-05-24T16:07:06.465Z,6.03
2018-05-24T16:09:36.338Z,5.97
2018-05-24T16:12:06.586Z,5.67
2018-05-24T16:14:36.178Z,5.50
2018-05-24T16:17:06.230Z,5.00
2018-05-24T16:19:37.241Z,5.87
2018-05-24T16:22:06.562Z,5.63
2018-05-24T16:24:37.766Z,5.50
2018-05-24T16:27:07.606Z,6.53
2018-05-24T16:29:35.966Z,7.03
2018-05-24T16:32:05.370Z,6.67
2018-05-24T16:34:35.044Z,7.63
2018-05-24T16:37:04.171Z,7.60
2018-05-24T16:39:34.752Z,5.77
2018-05-24T16:42:04.784Z,8.37
2018-05-24T16:44:33.518Z,7.00
2018-05-24T16:59:06.910Z,6.90
2018-05-24T17:01:36.239Z,7.10
2018-05-24T17:04:05.878Z,6.50
2018-05-24T17:06:36.037Z,6.03
2018-05-24T17:09:06.682Z,4.80
2018-05-24T17:11:36.455Z,4.80
2018-05-24T17:14:06.142Z,5.17
2018-05-24T17:16:35.903Z,4.47
2018-05-24T17:19:06.127Z,4.90
2018-05-24T17:21:35.654Z,4.53
2018-05-24T17:24:05.414Z,4.03
2018-05-24T17:26:35.606Z,4.27
2018-05-24T17:29:11.759Z,3.97
2018-05-24T17:31:41.298Z,3.90
2018-05-24T17:34:11.653Z,3.50
2018-05-24T17:36:39.990Z,3.00
2018-05-24T17:39:09.585Z,2.70
2018-05-24T17:41:39.088Z,2.83
2018-05-24T17:44:09.230Z,3.40
2018-05-24T17:46:39.179Z,3.53
2018-05-24T17:49:08.850Z,3.27
2018-05-24T17:51:38.660Z,2.70
2018-05-24T17:54:09.087Z,2.97
2018-05-24T17:56:39.010Z,2.83
2018-05-24T17:59:11.036Z,2.70
2018-05-24T18:01:58.399Z,2.67
2018-05-24T18:04:27.419Z,2.40
2018-05-24T18:06:56.689Z,2.30
2018-05-24T18:09:27.706Z,2.40
2018-05-24T18:11:56.098Z,1.97
2018-05-24T18:14:26.124Z,1.80
2018-05-24T18:16:56.789Z,2.00
2018-05-24T18:19:26.147Z,2.43
2018-05-24T18:21:55.852Z,2.30
2018-05-24T18:24:25.366Z,2.00
2018-05-24T18:26:55.083Z,2.50
2018-05-24T18:29:23.430Z,2.20
2018-05-24T18:32:13.339Z,2.03
2018-05-24T18:34:42.778Z,1.70
2018-05-24T18:37:12.549Z,1.90
2018-05-24T18:39:42.082Z,2.00
2018-05-24T18:42:11.930Z,1.73
2018-05-24T18:44:41.832Z,1.70
2018-05-24T18:47:10.536Z,2.00
2018-05-24T18:49:40.107Z,1.90
2018-05-24T18:52:09.097Z,1.77
2018-05-24T18:54:40.438Z,2.13
2018-05-24T18:57:10.515Z,2.00
2018-05-24T18:59:38.881Z,2.00
2018-05-24T19:02:08.404Z,2.07
2018-05-24T19:04:39.030Z,1.90
2018-05-24T19:07:08.990Z,1.73
2018-05-24T19:09:39.186Z,2.03
2018-05-24T19:12:17.102Z,1.97
2018-05-24T19:14:46.531Z,2.23
2018-05-24T19:17:17.389Z,2.40
2018-05-24T19:19:46.380Z,2.40
2018-05-24T19:22:15.454Z,2.73
2018-05-24T19:24:45.140Z,2.30
2018-05-24T19:27:14.154Z,2.40
2018-05-24T19:29:43.876Z,2.57
2018-05-24T19:32:13.870Z,2.23
2018-05-24T19:34:43.949Z,2.20
2018-05-24T19:37:12.199Z,2.70
2018-05-24T19:39:41.202Z,2.33
2018-05-24T19:42:10.311Z,2.60
2018-05-24T19:44:39.783Z,2.47
2018-05-24T19:47:08.491Z,2.57
2018-05-24T19:49:38.405Z,2.87
2018-05-24T19:52:08.078Z,2.77
2018-05-24T19:54:37.590Z,2.40
2018-05-24T19:57:06.969Z,2.33
2018-05-24T19:59:36.291Z,2.33
2018-05-24T20:02:04.722Z,2.50
2018-05-24T20:04:34.138Z,2.70
2018-05-24T20:07:04.006Z,2.43
2018-05-24T20:09:33.238Z,2.30
2018-05-24T20:12:08.185Z,2.30
2018-05-24T20:14:39.013Z,2.17
2018-05-24T20:17:08.493Z,2.80
2018-05-24T20:19:38.702Z,2.30
2018-05-24T20:22:07.575Z,2.27
2018-05-24T20:24:45.375Z,2.13
2018-05-24T20:27:15.035Z,2.50
2018-05-24T20:29:44.282Z,2.20
2018-05-24T20:32:13.667Z,2.40
2018-05-24T20:34:43.283Z,2.47
2018-05-24T20:37:13.162Z,2.40
2018-05-24T20:39:42.050Z,2.23
2018-05-24T20:42:11.587Z,2.20
2018-05-24T20:44:40.833Z,2.60
2018-05-24T20:47:10.412Z,2.07
2018-05-24T20:49:39.106Z,2.20
2018-05-24T20:52:08.370Z,2.40
2018-05-24T20:54:37.595Z,2.47
2018-05-24T20:57:06.894Z,2.20
2018-05-24T20:59:37.142Z,2.23
2018-05-24T21:02:07.690Z,2.10
2018-05-24T21:04:38.479Z,2.50
2018-05-24T21:07:07.437Z,2.90
2018-05-24T21:09:36.639Z,2.40
2018-05-24T21:12:05.386Z,2.17
2018-05-24T21:14:48.670Z,2.20
2018-05-24T21:17:19.867Z,2.70
2018-05-24T21:19:49.669Z,2.07
2018-05-24T21:22:18.906Z,2.60
2018-05-24T21:24:51.270Z,2.50
2018-05-24T21:27:21.281Z,2.40
2018-05-24T21:29:50.562Z,2.70
2018-05-24T21:32:19.678Z,2.40
2018-05-24T21:34:49.758Z,2.70
2018-05-24T21:37:19.845Z,2.10
2018-05-24T21:39:50.231Z,2.43
2018-05-24T21:42:20.455Z,2.53
2018-05-24T21:44:51.454Z,2.30
2018-05-24T21:47:20.613Z,2.20
2018-05-24T21:49:49.047Z,2.17
2018-05-24T21:52:19.461Z,2.40
2018-05-24T21:54:48.342Z,2.50
2018-05-24T21:57:18.495Z,2.23
2018-05-24T21:59:48.507Z,2.50
2018-05-24T22:02:18.303Z,2.50
2018-05-24T22:04:46.899Z,2.13
2018-05-24T22:07:17.200Z,2.63
2018-05-24T22:09:47.526Z,2.27
2018-05-24T22:12:16.406Z,2.13
2018-05-24T22:14:45.950Z,2.40
2018-05-24T22:17:16.922Z,2.27
2018-05-24T22:19:46.782Z,1.90
2018-05-24T22:22:16.720Z,2.57
2018-05-24T22:24:46.845Z,2.20
2018-05-24T22:27:16.136Z,2.37
2018-05-24T22:29:45.263Z,2.47
2018-05-24T22:32:15.687Z,2.37
2018-05-24T22:34:47.844Z,2.50
2018-05-24T22:37:16.435Z,1.90
2018-05-24T22:39:46.233Z,2.10
2018-05-24T22:42:15.594Z,2.00
2018-05-24T22:44:45.423Z,2.30
2018-05-24T22:47:16.211Z,2.07
2018-05-24T22:49:45.023Z,2.10
2018-05-24T22:52:14.150Z,2.03
2018-05-24T22:54:43.499Z,2.07
2018-05-24T22:57:14.315Z,2.30
2018-05-24T22:59:44.734Z,2.10
2018-05-24T23:02:14.233Z,2.40
2018-05-24T23:04:44.536Z,2.10
2018-05-24T23:07:14.615Z,2.10
2018-05-24T23:09:44.080Z,2.43
2018-05-24T23:12:13.406Z,2.27
2018-05-24T23:14:43.350Z,2.10
2018-05-24T23:17:14.258Z,2.40
2018-05-24T23:19:43.134Z,2.13
2018-05-24T23:25:14.241Z,2.50
2018-05-24T23:27:44.798Z,2.17
2018-05-24T23:30:14.848Z,2.10
2018-05-24T23:32:44.475Z,2.40
2018-05-24T23:35:30.222Z,2.30
2018-05-24T23:37:59.381Z,2.53
2018-05-24T23:40:30.522Z,2.30
2018-05-24T23:43:00.135Z,2.50
2018-05-24T23:45:29.913Z,2.17
2018-05-24T23:48:00.061Z,2.23
2018-05-24T23:50:30.488Z,2.20
2018-05-24T23:52:59.071Z,1.93
2018-05-24T23:55:29.571Z,1.60
2018-05-24T23:57:59.086Z,2.03
